sensor_id;sensor_type;location;lat;lon;timestamp;temperature;humidity
43920;DHT22;29578;51.946;5.874;2023-11-19T00:01:56;12.90;93.80
43920;DHT22;29578;51.946;5.874;2023-11-19T00:04:22;12.90;93.70
43920;DHT22;29578;51.946;5.874;2023-11-19T00:06:48;13.10;93.80
43920;DHT22;29578;51.946;5.874;2023-11-19T00:09:14;13.00;93.70
43920;DHT22;29578;51.946;5.874;2023-11-19T00:11:42;13.00;93.70
43920;DHT22;29578;51.946;5.874;2023-11-19T00:14:07;13.00;93.70
43920;DHT22;29578;51.946;5.874;2023-11-19T00:16:34;13.00;93.70
43920;DHT22;29578;51.946;5.874;2023-11-19T00:19:00;13.10;93.70
43920;DHT22;29578;51.946;5.874;2023-11-19T00:21:26;13.10;93.70
43920;DHT22;29578;51.946;5.874;2023-11-19T00:23:54;13.10;93.70
43920;DHT22;29578;51.946;5.874;2023-11-19T00:26:20;13.10;93.70
43920;DHT22;29578;51.946;5.874;2023-11-19T00:28:45;13.20;93.80
43920;DHT22;29578;51.946;5.874;2023-11-19T00:31:13;13.20;93.80
43920;DHT22;29578;51.946;5.874;2023-11-19T00:33:39;13.30;93.80
43920;DHT22;29578;51.946;5.874;2023-11-19T00:36:05;13.10;93.70
43920;DHT22;29578;51.946;5.874;2023-11-19T00:38:31;13.10;93.80
43920;DHT22;29578;51.946;5.874;2023-11-19T00:40:57;13.20;93.80
43920;DHT22;29578;51.946;5.874;2023-11-19T00:43:22;13.20;93.80
43920;DHT22;29578;51.946;5.874;2023-11-19T00:45:49;13.20;93.80
43920;DHT22;29578;51.946;5.874;2023-11-19T00:48:16;13.30;93.90
43920;DHT22;29578;51.946;5.874;2023-11-19T00:50:48;13.20;93.80
43920;DHT22;29578;51.946;5.874;2023-11-19T00:53:14;13.20;93.80
43920;DHT22;29578;51.946;5.874;2023-11-19T00:55:40;13.20;93.80
43920;DHT22;29578;51.946;5.874;2023-11-19T00:58:06;13.20;93.80
43920;DHT22;29578;51.946;5.874;2023-11-19T01:00:31;13.20;93.80
43920;DHT22;29578;51.946;5.874;2023-11-19T01:02:57;13.20;93.80
43920;DHT22;29578;51.946;5.874;2023-11-19T01:05:23;13.30;93.80
43920;DHT22;29578;51.946;5.874;2023-11-19T01:07:49;13.30;93.80
43920;DHT22;29578;51.946;5.874;2023-11-19T01:10:15;13.20;93.80
43920;DHT22;29578;51.946;5.874;2023-11-19T01:12:42;13.30;93.90
43920;DHT22;29578;51.946;5.874;2023-11-19T01:15:08;13.30;93.90
43920;DHT22;29578;51.946;5.874;2023-11-19T01:17:34;13.30;93.80
43920;DHT22;29578;51.946;5.874;2023-11-19T01:19:59;13.30;93.80
43920;DHT22;29578;51.946;5.874;2023-11-19T01:22:25;13.30;93.80
43920;DHT22;29578;51.946;5.874;2023-11-19T01:24:51;13.30;93.80
43920;DHT22;29578;51.946;5.874;2023-11-19T01:27:17;13.30;93.80
43920;DHT22;29578;51.946;5.874;2023-11-19T01:29:43;13.30;93.80
43920;DHT22;29578;51.946;5.874;2023-11-19T01:32:09;13.30;93.80
43920;DHT22;29578;51.946;5.874;2023-11-19T01:34:34;13.30;93.80
43920;DHT22;29578;51.946;5.874;2023-11-19T01:37:01;13.30;93.80
43920;DHT22;29578;51.946;5.874;2023-11-19T01:39:27;13.30;93.80
43920;DHT22;29578;51.946;5.874;2023-11-19T01:41:52;13.30;93.80
43920;DHT22;29578;51.946;5.874;2023-11-19T01:44:20;13.40;93.80
43920;DHT22;29578;51.946;5.874;2023-11-19T01:46:47;13.30;93.80
43920;DHT22;29578;51.946;5.874;2023-11-19T01:49:15;13.30;93.80
43920;DHT22;29578;51.946;5.874;2023-11-19T01:51:42;13.30;93.80
43920;DHT22;29578;51.946;5.874;2023-11-19T01:54:08;13.30;93.80
43920;DHT22;29578;51.946;5.874;2023-11-19T01:56:35;13.30;93.80
43920;DHT22;29578;51.946;5.874;2023-11-19T01:59:01;13.30;93.80
43920;DHT22;29578;51.946;5.874;2023-11-19T02:01:27;13.40;93.80
43920;DHT22;29578;51.946;5.874;2023-11-19T02:03:55;13.40;93.80
43920;DHT22;29578;51.946;5.874;2023-11-19T02:06:21;13.30;93.80
43920;DHT22;29578;51.946;5.874;2023-11-19T02:08:48;13.30;93.80
43920;DHT22;29578;51.946;5.874;2023-11-19T02:11:14;13.30;93.80
43920;DHT22;29578;51.946;5.874;2023-11-19T02:13:41;13.30;93.80
43920;DHT22;29578;51.946;5.874;2023-11-19T02:16:07;13.40;93.80
43920;DHT22;29578;51.946;5.874;2023-11-19T02:18:35;13.40;93.70
43920;DHT22;29578;51.946;5.874;2023-11-19T02:21:00;13.40;93.70
43920;DHT22;29578;51.946;5.874;2023-11-19T02:23:27;13.30;93.70
43920;DHT22;29578;51.946;5.874;2023-11-19T02:26:14;13.40;93.70
43920;DHT22;29578;51.946;5.874;2023-11-19T02:28:42;13.30;93.70
43920;DHT22;29578;51.946;5.874;2023-11-19T02:31:08;13.30;93.70
43920;DHT22;29578;51.946;5.874;2023-11-19T02:33:37;13.30;93.70
43920;DHT22;29578;51.946;5.874;2023-11-19T02:36:05;13.30;93.70
43920;DHT22;29578;51.946;5.874;2023-11-19T02:38:32;13.40;93.70
43920;DHT22;29578;51.946;5.874;2023-11-19T02:40:58;13.30;93.70
43920;DHT22;29578;51.946;5.874;2023-11-19T02:43:24;13.30;93.70
43920;DHT22;29578;51.946;5.874;2023-11-19T02:45:50;13.30;93.70
43920;DHT22;29578;51.946;5.874;2023-11-19T02:48:16;13.30;93.70
43920;DHT22;29578;51.946;5.874;2023-11-19T02:50:42;13.30;93.70
43920;DHT22;29578;51.946;5.874;2023-11-19T02:53:08;13.20;93.60
43920;DHT22;29578;51.946;5.874;2023-11-19T02:55:34;13.20;93.60
43920;DHT22;29578;51.946;5.874;2023-11-19T02:58:04;13.10;93.60
43920;DHT22;29578;51.946;5.874;2023-11-19T03:00:45;13.20;93.70
43920;DHT22;29578;51.946;5.874;2023-11-19T03:03:19;13.20;93.70
43920;DHT22;29578;51.946;5.874;2023-11-19T03:05:48;13.10;93.60
43920;DHT22;29578;51.946;5.874;2023-11-19T03:08:15;13.20;93.60
43920;DHT22;29578;51.946;5.874;2023-11-19T03:10:41;13.20;93.60
43920;DHT22;29578;51.946;5.874;2023-11-19T03:13:11;13.10;93.60
43920;DHT22;29578;51.946;5.874;2023-11-19T03:15:39;13.00;93.60
43920;DHT22;29578;51.946;5.874;2023-11-19T03:18:05;13.00;93.60
43920;DHT22;29578;51.946;5.874;2023-11-19T03:20:31;13.00;93.70
43920;DHT22;29578;51.946;5.874;2023-11-19T03:22:56;13.00;93.70
43920;DHT22;29578;51.946;5.874;2023-11-19T03:25:26;13.00;93.70
43920;DHT22;29578;51.946;5.874;2023-11-19T03:27:52;12.90;93.70
43920;DHT22;29578;51.946;5.874;2023-11-19T03:30:19;12.90;93.70
43920;DHT22;29578;51.946;5.874;2023-11-19T03:32:46;12.90;93.70
43920;DHT22;29578;51.946;5.874;2023-11-19T03:35:12;12.90;93.60
43920;DHT22;29578;51.946;5.874;2023-11-19T03:37:37;12.80;93.60
43920;DHT22;29578;51.946;5.874;2023-11-19T03:40:05;12.80;93.60
43920;DHT22;29578;51.946;5.874;2023-11-19T03:42:31;12.80;93.60
43920;DHT22;29578;51.946;5.874;2023-11-19T03:44:57;12.70;93.60
43920;DHT22;29578;51.946;5.874;2023-11-19T03:47:23;12.60;93.60
43920;DHT22;29578;51.946;5.874;2023-11-19T03:49:50;12.60;93.60
43920;DHT22;29578;51.946;5.874;2023-11-19T03:52:16;12.50;93.60
43920;DHT22;29578;51.946;5.874;2023-11-19T03:54:42;12.50;93.70
43920;DHT22;29578;51.946;5.874;2023-11-19T03:57:08;12.40;93.70
43920;DHT22;29578;51.946;5.874;2023-11-19T03:59:36;12.40;93.70
43920;DHT22;29578;51.946;5.874;2023-11-19T04:02:02;12.30;93.70
43920;DHT22;29578;51.946;5.874;2023-11-19T04:04:28;12.30;93.80
43920;DHT22;29578;51.946;5.874;2023-11-19T04:06:55;12.20;93.80
43920;DHT22;29578;51.946;5.874;2023-11-19T04:09:21;12.10;93.80
43920;DHT22;29578;51.946;5.874;2023-11-19T04:11:47;12.20;93.80
43920;DHT22;29578;51.946;5.874;2023-11-19T04:14:13;12.10;93.90
43920;DHT22;29578;51.946;5.874;2023-11-19T04:16:40;12.10;93.90
43920;DHT22;29578;51.946;5.874;2023-11-19T04:19:06;12.00;93.80
43920;DHT22;29578;51.946;5.874;2023-11-19T04:21:32;12.00;93.90
43920;DHT22;29578;51.946;5.874;2023-11-19T04:23:58;12.00;93.90
43920;DHT22;29578;51.946;5.874;2023-11-19T04:26:24;11.90;93.80
43920;DHT22;29578;51.946;5.874;2023-11-19T04:28:50;11.90;93.80
43920;DHT22;29578;51.946;5.874;2023-11-19T04:31:16;11.90;93.80
43920;DHT22;29578;51.946;5.874;2023-11-19T04:33:42;11.90;93.80
43920;DHT22;29578;51.946;5.874;2023-11-19T04:36:09;11.80;93.80
43920;DHT22;29578;51.946;5.874;2023-11-19T04:38:35;11.80;93.70
43920;DHT22;29578;51.946;5.874;2023-11-19T04:41:02;11.80;93.70
43920;DHT22;29578;51.946;5.874;2023-11-19T04:43:31;11.80;93.70
43920;DHT22;29578;51.946;5.874;2023-11-19T04:45:57;11.80;93.70
43920;DHT22;29578;51.946;5.874;2023-11-19T04:48:23;11.70;93.70
43920;DHT22;29578;51.946;5.874;2023-11-19T04:50:49;11.70;93.70
43920;DHT22;29578;51.946;5.874;2023-11-19T04:53:18;11.70;93.70
43920;DHT22;29578;51.946;5.874;2023-11-19T04:55:43;11.70;93.70
43920;DHT22;29578;51.946;5.874;2023-11-19T04:58:09;11.70;93.70
43920;DHT22;29578;51.946;5.874;2023-11-19T05:00:35;11.70;93.70
43920;DHT22;29578;51.946;5.874;2023-11-19T05:03:00;11.60;93.70
43920;DHT22;29578;51.946;5.874;2023-11-19T05:05:27;11.60;93.70
43920;DHT22;29578;51.946;5.874;2023-11-19T05:07:52;11.60;93.70
43920;DHT22;29578;51.946;5.874;2023-11-19T05:10:18;11.70;93.70
43920;DHT22;29578;51.946;5.874;2023-11-19T05:12:44;11.60;93.60
43920;DHT22;29578;51.946;5.874;2023-11-19T05:15:10;11.60;93.60
43920;DHT22;29578;51.946;5.874;2023-11-19T05:17:37;11.60;93.60
43920;DHT22;29578;51.946;5.874;2023-11-19T05:20:03;11.60;93.60
43920;DHT22;29578;51.946;5.874;2023-11-19T05:22:29;11.60;93.60
43920;DHT22;29578;51.946;5.874;2023-11-19T05:24:55;11.50;93.50
43920;DHT22;29578;51.946;5.874;2023-11-19T05:27:21;11.60;93.60
43920;DHT22;29578;51.946;5.874;2023-11-19T05:29:49;11.60;93.60
43920;DHT22;29578;51.946;5.874;2023-11-19T05:32:14;11.60;93.60
43920;DHT22;29578;51.946;5.874;2023-11-19T05:34:40;11.60;93.60
43920;DHT22;29578;51.946;5.874;2023-11-19T05:37:06;11.60;93.50
43920;DHT22;29578;51.946;5.874;2023-11-19T05:39:32;11.60;93.50
43920;DHT22;29578;51.946;5.874;2023-11-19T05:41:57;11.60;93.40
43920;DHT22;29578;51.946;5.874;2023-11-19T05:44:23;11.60;93.40
43920;DHT22;29578;51.946;5.874;2023-11-19T05:46:49;11.70;93.40
43920;DHT22;29578;51.946;5.874;2023-11-19T05:49:14;11.70;93.40
43920;DHT22;29578;51.946;5.874;2023-11-19T05:51:41;11.70;93.30
43920;DHT22;29578;51.946;5.874;2023-11-19T05:54:08;11.70;93.30
43920;DHT22;29578;51.946;5.874;2023-11-19T05:56:34;11.70;93.30
43920;DHT22;29578;51.946;5.874;2023-11-19T05:59:00;11.70;93.30
43920;DHT22;29578;51.946;5.874;2023-11-19T06:01:29;11.60;93.20
43920;DHT22;29578;51.946;5.874;2023-11-19T06:03:55;11.60;93.20
43920;DHT22;29578;51.946;5.874;2023-11-19T06:06:21;11.70;93.30
43920;DHT22;29578;51.946;5.874;2023-11-19T06:08:46;11.60;93.20
43920;DHT22;29578;51.946;5.874;2023-11-19T06:11:13;11.60;93.20
43920;DHT22;29578;51.946;5.874;2023-11-19T06:13:44;11.60;93.20
43920;DHT22;29578;51.946;5.874;2023-11-19T06:16:09;11.60;93.20
43920;DHT22;29578;51.946;5.874;2023-11-19T06:18:36;11.60;93.20
43920;DHT22;29578;51.946;5.874;2023-11-19T06:21:02;11.50;93.20
43920;DHT22;29578;51.946;5.874;2023-11-19T06:23:28;11.50;93.20
43920;DHT22;29578;51.946;5.874;2023-11-19T06:25:54;11.50;93.20
43920;DHT22;29578;51.946;5.874;2023-11-19T06:28:19;11.50;93.20
43920;DHT22;29578;51.946;5.874;2023-11-19T06:30:45;11.50;93.30
43920;DHT22;29578;51.946;5.874;2023-11-19T06:33:13;11.50;93.20
43920;DHT22;29578;51.946;5.874;2023-11-19T06:35:39;11.40;93.20
43920;DHT22;29578;51.946;5.874;2023-11-19T06:38:05;11.40;93.20
43920;DHT22;29578;51.946;5.874;2023-11-19T06:40:32;11.40;93.20
43920;DHT22;29578;51.946;5.874;2023-11-19T06:42:58;11.20;93.20
43920;DHT22;29578;51.946;5.874;2023-11-19T06:45:23;11.40;93.30
43920;DHT22;29578;51.946;5.874;2023-11-19T06:47:50;11.30;93.20
43920;DHT22;29578;51.946;5.874;2023-11-19T06:50:15;11.30;93.30
43920;DHT22;29578;51.946;5.874;2023-11-19T06:52:41;11.30;93.30
43920;DHT22;29578;51.946;5.874;2023-11-19T06:55:07;11.30;93.20
43920;DHT22;29578;51.946;5.874;2023-11-19T06:57:33;11.30;93.20
43920;DHT22;29578;51.946;5.874;2023-11-19T06:59:59;11.30;93.20
43920;DHT22;29578;51.946;5.874;2023-11-19T07:02:25;11.30;93.20
43920;DHT22;29578;51.946;5.874;2023-11-19T07:04:51;11.30;93.20
43920;DHT22;29578;51.946;5.874;2023-11-19T07:07:17;11.30;93.10
43920;DHT22;29578;51.946;5.874;2023-11-19T07:09:42;11.30;93.20
43920;DHT22;29578;51.946;5.874;2023-11-19T07:12:09;11.30;93.20
43920;DHT22;29578;51.946;5.874;2023-11-19T07:14:34;11.20;93.40
43920;DHT22;29578;51.946;5.874;2023-11-19T07:17:00;11.30;93.20
43920;DHT22;29578;51.946;5.874;2023-11-19T07:19:26;11.30;93.20
43920;DHT22;29578;51.946;5.874;2023-11-19T07:21:52;11.30;93.20
43920;DHT22;29578;51.946;5.874;2023-11-19T07:24:20;11.30;93.20
43920;DHT22;29578;51.946;5.874;2023-11-19T07:26:47;11.30;93.10
43920;DHT22;29578;51.946;5.874;2023-11-19T07:29:14;11.30;93.10
43920;DHT22;29578;51.946;5.874;2023-11-19T07:31:42;11.20;93.40
43920;DHT22;29578;51.946;5.874;2023-11-19T07:34:10;11.20;93.10
43920;DHT22;29578;51.946;5.874;2023-11-19T07:36:37;11.20;93.10
43920;DHT22;29578;51.946;5.874;2023-11-19T07:39:04;11.20;93.10
43920;DHT22;29578;51.946;5.874;2023-11-19T07:41:31;11.20;93.10
43920;DHT22;29578;51.946;5.874;2023-11-19T07:43:56;11.20;93.10
43920;DHT22;29578;51.946;5.874;2023-11-19T07:46:22;11.30;93.10
43920;DHT22;29578;51.946;5.874;2023-11-19T07:48:48;11.30;93.10
43920;DHT22;29578;51.946;5.874;2023-11-19T07:51:14;11.30;93.10
43920;DHT22;29578;51.946;5.874;2023-11-19T07:53:40;11.40;93.00
43920;DHT22;29578;51.946;5.874;2023-11-19T07:56:07;11.30;93.00
43920;DHT22;29578;51.946;5.874;2023-11-19T07:58:33;11.50;93.00
43920;DHT22;29578;51.946;5.874;2023-11-19T08:00:59;11.40;92.90
43920;DHT22;29578;51.946;5.874;2023-11-19T08:03:24;11.50;92.90
43920;DHT22;29578;51.946;5.874;2023-11-19T08:05:50;11.50;92.90
43920;DHT22;29578;51.946;5.874;2023-11-19T08:08:16;11.50;92.90
43920;DHT22;29578;51.946;5.874;2023-11-19T08:10:42;11.50;92.80
43920;DHT22;29578;51.946;5.874;2023-11-19T08:13:10;11.50;92.80
43920;DHT22;29578;51.946;5.874;2023-11-19T08:15:36;11.60;92.80
43920;DHT22;29578;51.946;5.874;2023-11-19T08:18:02;11.60;92.80
43920;DHT22;29578;51.946;5.874;2023-11-19T08:20:28;11.60;92.80
43920;DHT22;29578;51.946;5.874;2023-11-19T08:22:53;11.60;93.00
43920;DHT22;29578;51.946;5.874;2023-11-19T08:25:19;11.70;92.70
43920;DHT22;29578;51.946;5.874;2023-11-19T08:27:45;11.70;92.70
43920;DHT22;29578;51.946;5.874;2023-11-19T08:30:12;11.70;92.60
43920;DHT22;29578;51.946;5.874;2023-11-19T08:32:38;11.70;92.90
43920;DHT22;29578;51.946;5.874;2023-11-19T08:35:04;11.80;92.60
43920;DHT22;29578;51.946;5.874;2023-11-19T08:37:30;11.90;92.70
43920;DHT22;29578;51.946;5.874;2023-11-19T08:39:56;11.90;92.60
43920;DHT22;29578;51.946;5.874;2023-11-19T08:42:23;11.90;92.50
43920;DHT22;29578;51.946;5.874;2023-11-19T08:44:49;12.00;92.50
43920;DHT22;29578;51.946;5.874;2023-11-19T08:47:16;12.00;92.40
43920;DHT22;29578;51.946;5.874;2023-11-19T08:49:44;11.90;92.40
43920;DHT22;29578;51.946;5.874;2023-11-19T08:52:09;11.90;92.40
43920;DHT22;29578;51.946;5.874;2023-11-19T08:54:36;12.00;92.50
43920;DHT22;29578;51.946;5.874;2023-11-19T08:57:02;12.00;92.50
43920;DHT22;29578;51.946;5.874;2023-11-19T08:59:29;12.00;92.40
43920;DHT22;29578;51.946;5.874;2023-11-19T09:01:55;12.10;92.70
43920;DHT22;29578;51.946;5.874;2023-11-19T09:04:21;12.10;92.40
43920;DHT22;29578;51.946;5.874;2023-11-19T09:06:48;12.20;92.30
43920;DHT22;29578;51.946;5.874;2023-11-19T09:09:14;12.20;92.30
43920;DHT22;29578;51.946;5.874;2023-11-19T09:11:40;12.20;92.20
43920;DHT22;29578;51.946;5.874;2023-11-19T09:14:06;12.20;92.20
43920;DHT22;29578;51.946;5.874;2023-11-19T09:16:31;12.30;92.20
43920;DHT22;29578;51.946;5.874;2023-11-19T09:18:57;12.30;92.20
43920;DHT22;29578;51.946;5.874;2023-11-19T09:21:25;12.30;92.20
43920;DHT22;29578;51.946;5.874;2023-11-19T09:23:51;12.30;92.20
43920;DHT22;29578;51.946;5.874;2023-11-19T09:26:18;12.40;92.20
43920;DHT22;29578;51.946;5.874;2023-11-19T09:28:44;12.30;92.10
43920;DHT22;29578;51.946;5.874;2023-11-19T09:31:17;12.40;92.20
43920;DHT22;29578;51.946;5.874;2023-11-19T09:33:44;12.40;92.10
43920;DHT22;29578;51.946;5.874;2023-11-19T09:36:12;12.40;92.10
43920;DHT22;29578;51.946;5.874;2023-11-19T09:38:40;12.40;92.10
43920;DHT22;29578;51.946;5.874;2023-11-19T09:41:06;12.50;92.10
43920;DHT22;29578;51.946;5.874;2023-11-19T09:43:34;12.50;92.10
43920;DHT22;29578;51.946;5.874;2023-11-19T09:46:05;12.50;92.10
43920;DHT22;29578;51.946;5.874;2023-11-19T09:48:33;12.50;92.00
43920;DHT22;29578;51.946;5.874;2023-11-19T09:51:01;12.60;92.00
43920;DHT22;29578;51.946;5.874;2023-11-19T09:53:27;12.70;92.00
43920;DHT22;29578;51.946;5.874;2023-11-19T09:55:54;12.70;92.00
43920;DHT22;29578;51.946;5.874;2023-11-19T09:58:20;12.60;91.90
43920;DHT22;29578;51.946;5.874;2023-11-19T10:00:47;12.70;91.90
43920;DHT22;29578;51.946;5.874;2023-11-19T10:03:14;12.80;91.90
43920;DHT22;29578;51.946;5.874;2023-11-19T10:05:39;12.80;91.80
43920;DHT22;29578;51.946;5.874;2023-11-19T10:08:06;13.00;91.80
43920;DHT22;29578;51.946;5.874;2023-11-19T10:10:33;12.90;91.80
43920;DHT22;29578;51.946;5.874;2023-11-19T10:13:00;12.90;91.70
43920;DHT22;29578;51.946;5.874;2023-11-19T10:15:26;13.00;91.60
43920;DHT22;29578;51.946;5.874;2023-11-19T10:17:55;12.90;91.60
43920;DHT22;29578;51.946;5.874;2023-11-19T10:20:22;12.90;91.70
43920;DHT22;29578;51.946;5.874;2023-11-19T10:22:47;13.00;91.70
43920;DHT22;29578;51.946;5.874;2023-11-19T10:25:27;12.90;91.70
43920;DHT22;29578;51.946;5.874;2023-11-19T10:27:53;12.90;91.70
43920;DHT22;29578;51.946;5.874;2023-11-19T10:30:22;12.90;91.70
43920;DHT22;29578;51.946;5.874;2023-11-19T10:33:07;12.90;91.80
43920;DHT22;29578;51.946;5.874;2023-11-19T10:35:34;12.90;91.70
43920;DHT22;29578;51.946;5.874;2023-11-19T10:38:13;13.00;91.70
43920;DHT22;29578;51.946;5.874;2023-11-19T10:40:39;13.00;91.70
43920;DHT22;29578;51.946;5.874;2023-11-19T10:43:06;13.00;91.60
43920;DHT22;29578;51.946;5.874;2023-11-19T10:45:34;13.00;91.60
43920;DHT22;29578;51.946;5.874;2023-11-19T10:48:02;13.00;91.60
43920;DHT22;29578;51.946;5.874;2023-11-19T10:50:32;13.00;91.60
43920;DHT22;29578;51.946;5.874;2023-11-19T10:52:57;13.10;91.60
43920;DHT22;29578;51.946;5.874;2023-11-19T10:55:27;13.10;91.50
43920;DHT22;29578;51.946;5.874;2023-11-19T10:58:00;13.10;91.40
43920;DHT22;29578;51.946;5.874;2023-11-19T11:00:29;13.10;91.40
43920;DHT22;29578;51.946;5.874;2023-11-19T11:03:00;13.20;91.40
43920;DHT22;29578;51.946;5.874;2023-11-19T11:05:29;13.20;91.40
43920;DHT22;29578;51.946;5.874;2023-11-19T11:07:58;13.20;91.30
43920;DHT22;29578;51.946;5.874;2023-11-19T11:10:26;13.30;91.30
43920;DHT22;29578;51.946;5.874;2023-11-19T11:12:52;13.30;91.20
43920;DHT22;29578;51.946;5.874;2023-11-19T11:15:27;13.50;91.20
43920;DHT22;29578;51.946;5.874;2023-11-19T11:17:59;13.50;91.10
43920;DHT22;29578;51.946;5.874;2023-11-19T11:20:28;13.50;91.10
43920;DHT22;29578;51.946;5.874;2023-11-19T11:23:11;13.40;91.00
43920;DHT22;29578;51.946;5.874;2023-11-19T11:25:52;13.40;91.00
43920;DHT22;29578;51.946;5.874;2023-11-19T11:28:40;13.50;90.90
43920;DHT22;29578;51.946;5.874;2023-11-19T11:31:23;13.50;90.90
43920;DHT22;29578;51.946;5.874;2023-11-19T11:34:05;13.50;90.90
43920;DHT22;29578;51.946;5.874;2023-11-19T11:36:48;13.50;90.90
43920;DHT22;29578;51.946;5.874;2023-11-19T11:39:16;13.60;90.90
43920;DHT22;29578;51.946;5.874;2023-11-19T11:41:41;13.70;90.90
43920;DHT22;29578;51.946;5.874;2023-11-19T11:44:07;13.70;90.80
43920;DHT22;29578;51.946;5.874;2023-11-19T11:46:53;13.60;90.80
43920;DHT22;29578;51.946;5.874;2023-11-19T11:49:25;13.60;90.70
43920;DHT22;29578;51.946;5.874;2023-11-19T11:51:58;13.70;90.70
43920;DHT22;29578;51.946;5.874;2023-11-19T11:54:26;13.70;90.70
43920;DHT22;29578;51.946;5.874;2023-11-19T11:57:11;13.60;90.70
43920;DHT22;29578;51.946;5.874;2023-11-19T11:59:46;13.60;90.70
43920;DHT22;29578;51.946;5.874;2023-11-19T12:02:14;13.50;90.70
43920;DHT22;29578;51.946;5.874;2023-11-19T12:04:42;13.40;90.80
43920;DHT22;29578;51.946;5.874;2023-11-19T12:07:24;13.40;90.90
43920;DHT22;29578;51.946;5.874;2023-11-19T12:09:53;13.30;90.90
43920;DHT22;29578;51.946;5.874;2023-11-19T12:12:23;13.30;91.20
43920;DHT22;29578;51.946;5.874;2023-11-19T12:15:06;13.30;90.90
43920;DHT22;29578;51.946;5.874;2023-11-19T12:17:40;13.30;90.90
43920;DHT22;29578;51.946;5.874;2023-11-19T12:20:07;13.30;90.80
43920;DHT22;29578;51.946;5.874;2023-11-19T12:22:38;13.30;90.80
43920;DHT22;29578;51.946;5.874;2023-11-19T12:25:05;13.50;90.80
43920;DHT22;29578;51.946;5.874;2023-11-19T12:27:35;13.60;90.60
43920;DHT22;29578;51.946;5.874;2023-11-19T12:30:03;13.70;90.50
43920;DHT22;29578;51.946;5.874;2023-11-19T12:32:43;13.80;90.30
43920;DHT22;29578;51.946;5.874;2023-11-19T12:35:10;13.90;90.20
43920;DHT22;29578;51.946;5.874;2023-11-19T12:37:48;13.90;90.20
43920;DHT22;29578;51.946;5.874;2023-11-19T12:40:15;14.00;90.20
43920;DHT22;29578;51.946;5.874;2023-11-19T12:42:43;14.00;90.10
43920;DHT22;29578;51.946;5.874;2023-11-19T12:45:09;14.10;90.10
43920;DHT22;29578;51.946;5.874;2023-11-19T12:47:38;14.10;90.00
43920;DHT22;29578;51.946;5.874;2023-11-19T12:50:05;14.20;90.00
43920;DHT22;29578;51.946;5.874;2023-11-19T12:52:32;14.20;89.80
43920;DHT22;29578;51.946;5.874;2023-11-19T12:54:58;14.20;89.70
43920;DHT22;29578;51.946;5.874;2023-11-19T12:57:40;14.30;89.80
43920;DHT22;29578;51.946;5.874;2023-11-19T13:00:07;14.30;89.50
43920;DHT22;29578;51.946;5.874;2023-11-19T13:02:50;14.30;89.40
43920;DHT22;29578;51.946;5.874;2023-11-19T13:05:31;14.30;89.60
43920;DHT22;29578;51.946;5.874;2023-11-19T13:08:01;14.30;89.50
43920;DHT22;29578;51.946;5.874;2023-11-19T13:10:29;14.20;89.40
43920;DHT22;29578;51.946;5.874;2023-11-19T13:13:09;14.20;89.40
43920;DHT22;29578;51.946;5.874;2023-11-19T13:15:35;14.00;89.60
43920;DHT22;29578;51.946;5.874;2023-11-19T13:18:02;14.00;89.80
43920;DHT22;29578;51.946;5.874;2023-11-19T13:20:29;14.00;89.80
43920;DHT22;29578;51.946;5.874;2023-11-19T13:22:57;14.00;90.00
43920;DHT22;29578;51.946;5.874;2023-11-19T13:25:23;13.80;90.00
43920;DHT22;29578;51.946;5.874;2023-11-19T13:27:49;13.80;90.10
43920;DHT22;29578;51.946;5.874;2023-11-19T13:30:15;13.80;90.20
43920;DHT22;29578;51.946;5.874;2023-11-19T13:32:41;13.80;90.20
43920;DHT22;29578;51.946;5.874;2023-11-19T13:35:09;13.70;90.20
43920;DHT22;29578;51.946;5.874;2023-11-19T13:37:35;13.70;90.20
43920;DHT22;29578;51.946;5.874;2023-11-19T13:40:00;13.70;90.20
43920;DHT22;29578;51.946;5.874;2023-11-19T13:42:26;13.60;90.20
43920;DHT22;29578;51.946;5.874;2023-11-19T13:44:52;13.60;90.20
43920;DHT22;29578;51.946;5.874;2023-11-19T13:47:18;13.50;90.20
43920;DHT22;29578;51.946;5.874;2023-11-19T13:49:45;13.50;90.30
43920;DHT22;29578;51.946;5.874;2023-11-19T13:52:11;13.50;90.30
43920;DHT22;29578;51.946;5.874;2023-11-19T13:54:37;13.40;90.30
43920;DHT22;29578;51.946;5.874;2023-11-19T13:57:06;13.30;90.40
43920;DHT22;29578;51.946;5.874;2023-11-19T13:59:31;13.20;90.50
43920;DHT22;29578;51.946;5.874;2023-11-19T14:01:58;13.10;90.60
43920;DHT22;29578;51.946;5.874;2023-11-19T14:04:24;13.00;90.70
43920;DHT22;29578;51.946;5.874;2023-11-19T14:06:51;12.90;90.80
43920;DHT22;29578;51.946;5.874;2023-11-19T14:09:17;12.80;90.90
43920;DHT22;29578;51.946;5.874;2023-11-19T14:11:43;12.90;90.90
43920;DHT22;29578;51.946;5.874;2023-11-19T14:14:09;12.80;91.00
43920;DHT22;29578;51.946;5.874;2023-11-19T14:16:34;12.80;91.00
43920;DHT22;29578;51.946;5.874;2023-11-19T14:19:01;12.90;91.10
43920;DHT22;29578;51.946;5.874;2023-11-19T14:21:26;12.80;91.10
43920;DHT22;29578;51.946;5.874;2023-11-19T14:23:52;12.90;91.10
43920;DHT22;29578;51.946;5.874;2023-11-19T14:26:18;13.00;91.00
43920;DHT22;29578;51.946;5.874;2023-11-19T14:28:44;13.00;90.90
43920;DHT22;29578;51.946;5.874;2023-11-19T14:31:10;13.00;90.80
43920;DHT22;29578;51.946;5.874;2023-11-19T14:33:36;13.10;90.80
43920;DHT22;29578;51.946;5.874;2023-11-19T14:36:04;13.00;90.70
43920;DHT22;29578;51.946;5.874;2023-11-19T14:38:30;12.90;90.70
43920;DHT22;29578;51.946;5.874;2023-11-19T14:40:55;12.90;90.80
43920;DHT22;29578;51.946;5.874;2023-11-19T14:43:21;12.90;90.90
43920;DHT22;29578;51.946;5.874;2023-11-19T14:45:47;12.80;90.90
43920;DHT22;29578;51.946;5.874;2023-11-19T14:48:12;12.70;90.90
43920;DHT22;29578;51.946;5.874;2023-11-19T14:50:38;12.70;91.00
43920;DHT22;29578;51.946;5.874;2023-11-19T14:53:04;12.60;91.10
43920;DHT22;29578;51.946;5.874;2023-11-19T14:55:30;12.60;91.10
43920;DHT22;29578;51.946;5.874;2023-11-19T14:57:56;12.60;91.20
43920;DHT22;29578;51.946;5.874;2023-11-19T15:00:22;12.60;91.20
43920;DHT22;29578;51.946;5.874;2023-11-19T15:02:48;12.50;91.20
43920;DHT22;29578;51.946;5.874;2023-11-19T15:05:13;12.50;91.20
43920;DHT22;29578;51.946;5.874;2023-11-19T15:07:40;12.50;91.20
43920;DHT22;29578;51.946;5.874;2023-11-19T15:10:06;12.40;91.20
43920;DHT22;29578;51.946;5.874;2023-11-19T15:12:37;12.30;91.20
43920;DHT22;29578;51.946;5.874;2023-11-19T15:15:06;12.40;91.20
43920;DHT22;29578;51.946;5.874;2023-11-19T15:17:32;12.30;91.20
43920;DHT22;29578;51.946;5.874;2023-11-19T15:19:58;12.30;91.30
43920;DHT22;29578;51.946;5.874;2023-11-19T15:22:23;12.30;91.30
43920;DHT22;29578;51.946;5.874;2023-11-19T15:24:49;12.30;91.30
43920;DHT22;29578;51.946;5.874;2023-11-19T15:27:15;12.30;91.30
43920;DHT22;29578;51.946;5.874;2023-11-19T15:29:40;12.20;91.30
43920;DHT22;29578;51.946;5.874;2023-11-19T15:32:06;12.20;91.30